sensor_id;sensor_type;location;lat;lon;timestamp;temperature;humidity
29855;DHT22;16733;48.738;9.106;2022-08-19T00:04:54;21.00;72.20
29855;DHT22;16733;48.738;9.106;2022-08-19T00:07:19;21.00;72.30
29855;DHT22;16733;48.738;9.106;2022-08-19T00:09:45;21.00;72.40
29855;DHT22;16733;48.738;9.106;2022-08-19T00:15:33;21.00;72.40
29855;DHT22;16733;48.738;9.106;2022-08-19T00:17:58;21.00;72.50
29855;DHT22;16733;48.738;9.106;2022-08-19T00:20:24;21.00;72.60
29855;DHT22;16733;48.738;9.106;2022-08-19T00:22:50;20.90;72.60
29855;DHT22;16733;48.738;9.106;2022-08-19T00:25:16;20.90;72.60
29855;DHT22;16733;48.738;9.106;2022-08-19T00:27:42;20.90;72.70
29855;DHT22;16733;48.738;9.106;2022-08-19T00:46:58;20.80;72.70
29855;DHT22;16733;48.738;9.106;2022-08-19T00:52:49;20.80;72.90
29855;DHT22;16733;48.738;9.106;2022-08-19T00:55:21;20.80;72.90
29855;DHT22;16733;48.738;9.106;2022-08-19T01:01:09;20.80;73.10
29855;DHT22;16733;48.738;9.106;2022-08-19T01:03:35;20.70;73.10
29855;DHT22;16733;48.738;9.106;2022-08-19T01:06:00;20.70;73.30
29855;DHT22;16733;48.738;9.106;2022-08-19T01:08:26;20.70;73.40
29855;DHT22;16733;48.738;9.106;2022-08-19T01:10:56;20.60;73.50
29855;DHT22;16733;48.738;9.106;2022-08-19T01:13:25;20.70;73.80
29855;DHT22;16733;48.738;9.106;2022-08-19T01:15:58;20.60;73.90
29855;DHT22;16733;48.738;9.106;2022-08-19T01:18:25;20.60;74.10
29855;DHT22;16733;48.738;9.106;2022-08-19T01:20:54;20.60;74.20
29855;DHT22;16733;48.738;9.106;2022-08-19T01:23:21;20.50;74.40
29855;DHT22;16733;48.738;9.106;2022-08-19T01:25:50;20.50;74.60
29855;DHT22;16733;48.738;9.106;2022-08-19T01:35:04;20.50;75.00
29855;DHT22;16733;48.738;9.106;2022-08-19T01:37:40;20.50;75.10
29855;DHT22;16733;48.738;9.106;2022-08-19T01:40:07;20.50;75.10
29855;DHT22;16733;48.738;9.106;2022-08-19T01:45:55;20.50;75.30
29855;DHT22;16733;48.738;9.106;2022-08-19T01:48:21;20.40;75.10
29855;DHT22;16733;48.738;9.106;2022-08-19T01:50:47;20.40;75.10
29855;DHT22;16733;48.738;9.106;2022-08-19T01:56:35;20.40;75.20
29855;DHT22;16733;48.738;9.106;2022-08-19T01:59:05;20.40;75.20
29855;DHT22;16733;48.738;9.106;2022-08-19T02:04:53;20.50;75.30
29855;DHT22;16733;48.738;9.106;2022-08-19T02:07:20;20.50;75.20
29855;DHT22;16733;48.738;9.106;2022-08-19T02:13:12;20.50;75.30
29855;DHT22;16733;48.738;9.106;2022-08-19T02:15:39;20.50;75.30
29855;DHT22;16733;48.738;9.106;2022-08-19T02:21:28;20.40;75.30
29855;DHT22;16733;48.738;9.106;2022-08-19T02:23:54;20.40;75.30
29855;DHT22;16733;48.738;9.106;2022-08-19T02:26:20;20.40;75.30
29855;DHT22;16733;48.738;9.106;2022-08-19T02:28:46;20.40;75.40
29855;DHT22;16733;48.738;9.106;2022-08-19T02:31:17;20.40;75.50
29855;DHT22;16733;48.738;9.106;2022-08-19T02:33:44;20.40;75.60
29855;DHT22;16733;48.738;9.106;2022-08-19T02:36:11;20.40;75.60
29855;DHT22;16733;48.738;9.106;2022-08-19T02:41:59;20.30;75.50
29855;DHT22;16733;48.738;9.106;2022-08-19T02:44:24;20.30;75.60
29855;DHT22;16733;48.738;9.106;2022-08-19T02:57:09;20.30;75.90
29855;DHT22;16733;48.738;9.106;2022-08-19T03:02:57;20.20;75.90
29855;DHT22;16733;48.738;9.106;2022-08-19T03:05:24;20.20;76.00
29855;DHT22;16733;48.738;9.106;2022-08-19T03:07:50;20.20;76.10
29855;DHT22;16733;48.738;9.106;2022-08-19T03:13:37;20.10;76.30
29855;DHT22;16733;48.738;9.106;2022-08-19T03:19:25;20.10;76.70
29855;DHT22;16733;48.738;9.106;2022-08-19T03:21:51;20.10;76.60
29855;DHT22;16733;48.738;9.106;2022-08-19T03:24:17;20.10;76.60
29855;DHT22;16733;48.738;9.106;2022-08-19T03:30:06;20.10;76.90
29855;DHT22;16733;48.738;9.106;2022-08-19T03:36:13;20.10;76.90
29855;DHT22;16733;48.738;9.106;2022-08-19T03:38:42;20.00;77.00
29855;DHT22;16733;48.738;9.106;2022-08-19T03:41:11;20.00;77.00
29855;DHT22;16733;48.738;9.106;2022-08-19T03:43:39;20.00;77.20
29855;DHT22;16733;48.738;9.106;2022-08-19T03:49:28;20.00;77.40
29855;DHT22;16733;48.738;9.106;2022-08-19T03:58:39;19.90;77.40
29855;DHT22;16733;48.738;9.106;2022-08-19T04:01:09;19.90;77.60
29855;DHT22;16733;48.738;9.106;2022-08-19T04:06:58;19.90;77.90
29855;DHT22;16733;48.738;9.106;2022-08-19T04:09:23;19.80;77.90
29855;DHT22;16733;48.738;9.106;2022-08-19T04:12:05;19.80;77.90
29855;DHT22;16733;48.738;9.106;2022-08-19T04:14:31;19.90;78.10
29855;DHT22;16733;48.738;9.106;2022-08-19T04:16:59;19.90;78.10
29855;DHT22;16733;48.738;9.106;2022-08-19T04:19:25;19.80;78.00
29855;DHT22;16733;48.738;9.106;2022-08-19T04:21:53;19.80;78.10
29855;DHT22;16733;48.738;9.106;2022-08-19T04:24:34;19.80;78.20
29855;DHT22;16733;48.738;9.106;2022-08-19T04:27:00;19.80;78.20
29855;DHT22;16733;48.738;9.106;2022-08-19T04:29:27;19.80;78.20
29855;DHT22;16733;48.738;9.106;2022-08-19T04:31:56;19.80;78.20
29855;DHT22;16733;48.738;9.106;2022-08-19T04:34:25;19.80;78.20
29855;DHT22;16733;48.738;9.106;2022-08-19T04:40:13;19.80;78.40
29855;DHT22;16733;48.738;9.106;2022-08-19T04:42:57;19.80;78.40
29855;DHT22;16733;48.738;9.106;2022-08-19T04:45:23;19.80;78.40
29855;DHT22;16733;48.738;9.106;2022-08-19T04:47:49;19.80;78.50
29855;DHT22;16733;48.738;9.106;2022-08-19T04:57:07;19.80;78.50
29855;DHT22;16733;48.738;9.106;2022-08-19T04:59:34;19.80;78.50
29855;DHT22;16733;48.738;9.106;2022-08-19T05:05:22;19.90;78.80
29855;DHT22;16733;48.738;9.106;2022-08-19T05:07:48;19.80;78.60
29855;DHT22;16733;48.738;9.106;2022-08-19T05:13:35;19.90;78.80
29855;DHT22;16733;48.738;9.106;2022-08-19T05:16:01;19.80;78.70
29855;DHT22;16733;48.738;9.106;2022-08-19T05:18:27;19.90;78.90
29855;DHT22;16733;48.738;9.106;2022-08-19T05:21:13;19.90;79.00
29855;DHT22;16733;48.738;9.106;2022-08-19T05:23:58;19.80;79.00
29855;DHT22;16733;48.738;9.106;2022-08-19T05:26:25;19.80;79.10
29855;DHT22;16733;48.738;9.106;2022-08-19T05:35:19;19.90;79.20
29855;DHT22;16733;48.738;9.106;2022-08-19T05:37:45;19.90;79.20
29855;DHT22;16733;48.738;9.106;2022-08-19T05:40:11;19.90;79.30
29855;DHT22;16733;48.738;9.106;2022-08-19T05:42:37;19.90;79.30
29855;DHT22;16733;48.738;9.106;2022-08-19T05:45:03;19.90;79.30
29855;DHT22;16733;48.738;9.106;2022-08-19T05:47:29;19.90;79.30
29855;DHT22;16733;48.738;9.106;2022-08-19T05:53:17;19.90;79.40
29855;DHT22;16733;48.738;9.106;2022-08-19T05:55:43;19.90;79.40
29855;DHT22;16733;48.738;9.106;2022-08-19T05:58:09;19.90;79.40
29855;DHT22;16733;48.738;9.106;2022-08-19T06:03:57;20.00;79.50
29855;DHT22;16733;48.738;9.106;2022-08-19T06:06:22;19.90;79.40
29855;DHT22;16733;48.738;9.106;2022-08-19T06:12:10;19.90;79.50
29855;DHT22;16733;48.738;9.106;2022-08-19T06:14:36;19.90;79.60
29855;DHT22;16733;48.738;9.106;2022-08-19T06:17:02;19.90;79.60
29855;DHT22;16733;48.738;9.106;2022-08-19T06:19:29;19.90;79.60
29855;DHT22;16733;48.738;9.106;2022-08-19T06:21:57;19.90;79.60
29855;DHT22;16733;48.738;9.106;2022-08-19T06:27:46;19.90;79.60
29855;DHT22;16733;48.738;9.106;2022-08-19T06:30:12;20.00;79.70
29855;DHT22;16733;48.738;9.106;2022-08-19T06:32:37;20.00;79.70
29855;DHT22;16733;48.738;9.106;2022-08-19T06:35:04;20.00;79.80
29855;DHT22;16733;48.738;9.106;2022-08-19T06:37:30;20.00;79.80
29855;DHT22;16733;48.738;9.106;2022-08-19T06:39:56;20.00;79.80
29855;DHT22;16733;48.738;9.106;2022-08-19T06:42:21;20.10;79.80
29855;DHT22;16733;48.738;9.106;2022-08-19T06:44:47;20.00;79.70
29855;DHT22;16733;48.738;9.106;2022-08-19T06:47:16;20.10;80.60
29855;DHT22;16733;48.738;9.106;2022-08-19T06:49:42;20.00;79.70
29855;DHT22;16733;48.738;9.106;2022-08-19T06:55:30;20.00;79.90
29855;DHT22;16733;48.738;9.106;2022-08-19T07:01:19;20.00;80.00
29855;DHT22;16733;48.738;9.106;2022-08-19T07:03:45;20.00;80.10
29855;DHT22;16733;48.738;9.106;2022-08-19T07:09:34;19.80;80.70
29855;DHT22;16733;48.738;9.106;2022-08-19T07:12:04;19.60;81.10
29855;DHT22;16733;48.738;9.106;2022-08-19T07:17:52;19.50;82.30
29855;DHT22;16733;48.738;9.106;2022-08-19T07:20:17;19.40;82.50
29855;DHT22;16733;48.738;9.106;2022-08-19T07:26:30;19.30;83.40
29855;DHT22;16733;48.738;9.106;2022-08-19T07:28:57;19.30;83.60
29855;DHT22;16733;48.738;9.106;2022-08-19T07:38:07;19.30;84.30
29855;DHT22;16733;48.738;9.106;2022-08-19T07:40:33;19.30;84.30
29855;DHT22;16733;48.738;9.106;2022-08-19T07:42:59;19.30;84.50
29855;DHT22;16733;48.738;9.106;2022-08-19T07:45:24;19.40;84.50
29855;DHT22;16733;48.738;9.106;2022-08-19T07:47:50;19.40;84.50
29855;DHT22;16733;48.738;9.106;2022-08-19T07:50:17;19.40;84.60
29855;DHT22;16733;48.738;9.106;2022-08-19T07:52:44;19.50;84.60
29855;DHT22;16733;48.738;9.106;2022-08-19T07:55:11;19.50;84.40
29855;DHT22;16733;48.738;9.106;2022-08-19T08:04:22;19.70;84.10
29855;DHT22;16733;48.738;9.106;2022-08-19T08:13:50;19.70;84.00
29855;DHT22;16733;48.738;9.106;2022-08-19T08:19:39;19.80;84.10
29855;DHT22;16733;48.738;9.106;2022-08-19T08:22:07;19.70;83.80
29855;DHT22;16733;48.738;9.106;2022-08-19T08:27:54;19.70;83.90
29855;DHT22;16733;48.738;9.106;2022-08-19T08:30:23;19.70;83.80
29855;DHT22;16733;48.738;9.106;2022-08-19T08:36:12;19.70;83.90
29855;DHT22;16733;48.738;9.106;2022-08-19T08:38:40;19.80;83.90
29855;DHT22;16733;48.738;9.106;2022-08-19T08:43:57;19.80;83.80
29855;DHT22;16733;48.738;9.106;2022-08-19T08:46:44;19.70;83.80
29855;DHT22;16733;48.738;9.106;2022-08-19T08:49:41;19.80;84.00
29855;DHT22;16733;48.738;9.106;2022-08-19T08:55:31;19.80;84.10
29855;DHT22;16733;48.738;9.106;2022-08-19T08:58:12;19.90;84.10
29855;DHT22;16733;48.738;9.106;2022-08-19T09:04:05;20.00;83.90
29855;DHT22;16733;48.738;9.106;2022-08-19T09:06:49;20.10;83.70
29855;DHT22;16733;48.738;9.106;2022-08-19T09:09:24;20.10;83.60
29855;DHT22;16733;48.738;9.106;2022-08-19T09:12:14;20.20;83.60
29855;DHT22;16733;48.738;9.106;2022-08-19T09:18:11;20.20;83.40
29855;DHT22;16733;48.738;9.106;2022-08-19T09:20:37;20.30;83.40
29855;DHT22;16733;48.738;9.106;2022-08-19T09:23:03;20.30;83.30
29855;DHT22;16733;48.738;9.106;2022-08-19T09:25:29;20.40;83.20
29855;DHT22;16733;48.738;9.106;2022-08-19T09:27:57;20.40;83.10
29855;DHT22;16733;48.738;9.106;2022-08-19T09:30:28;20.40;83.10
29855;DHT22;16733;48.738;9.106;2022-08-19T09:32:54;20.40;83.00
29855;DHT22;16733;48.738;9.106;2022-08-19T09:38:42;20.50;82.90
29855;DHT22;16733;48.738;9.106;2022-08-19T09:41:14;20.60;82.90
29855;DHT22;16733;48.738;9.106;2022-08-19T09:43:41;20.60;82.60
29855;DHT22;16733;48.738;9.106;2022-08-19T09:49:29;20.60;82.30
29855;DHT22;16733;48.738;9.106;2022-08-19T09:51:54;20.70;82.40
29855;DHT22;16733;48.738;9.106;2022-08-19T09:54:21;20.70;82.40
29855;DHT22;16733;48.738;9.106;2022-08-19T09:56:47;20.80;82.20
29855;DHT22;16733;48.738;9.106;2022-08-19T10:02:41;20.90;82.00
29855;DHT22;16733;48.738;9.106;2022-08-19T10:08:44;20.90;81.60
29855;DHT22;16733;48.738;9.106;2022-08-19T10:11:10;20.90;81.50
29855;DHT22;16733;48.738;9.106;2022-08-19T10:13:36;20.90;81.60
29855;DHT22;16733;48.738;9.106;2022-08-19T10:16:07;20.90;81.50
29855;DHT22;16733;48.738;9.106;2022-08-19T10:18:34;21.00;81.50
29855;DHT22;16733;48.738;9.106;2022-08-19T10:21:06;21.00;81.40
29855;DHT22;16733;48.738;9.106;2022-08-19T10:23:34;21.10;81.40
29855;DHT22;16733;48.738;9.106;2022-08-19T10:26:00;21.10;81.20
29855;DHT22;16733;48.738;9.106;2022-08-19T10:28:26;21.20;81.10
29855;DHT22;16733;48.738;9.106;2022-08-19T10:30:51;21.20;81.00
29855;DHT22;16733;48.738;9.106;2022-08-19T10:33:18;21.20;80.90
29855;DHT22;16733;48.738;9.106;2022-08-19T10:35:44;21.20;80.80
29855;DHT22;16733;48.738;9.106;2022-08-19T10:38:12;21.30;80.80
29855;DHT22;16733;48.738;9.106;2022-08-19T10:40:37;21.30;80.70
29855;DHT22;16733;48.738;9.106;2022-08-19T10:43:03;21.40;80.50
29855;DHT22;16733;48.738;9.106;2022-08-19T10:45:29;21.40;80.30
29855;DHT22;16733;48.738;9.106;2022-08-19T10:47:54;21.40;80.10
29855;DHT22;16733;48.738;9.106;2022-08-19T10:50:20;21.40;79.80
29855;DHT22;16733;48.738;9.106;2022-08-19T10:53:06;21.40;79.80
29855;DHT22;16733;48.738;9.106;2022-08-19T10:55:34;21.50;79.60
29855;DHT22;16733;48.738;9.106;2022-08-19T10:58:20;21.40;79.40
29855;DHT22;16733;48.738;9.106;2022-08-19T11:04:17;21.40;79.20
29855;DHT22;16733;48.738;9.106;2022-08-19T11:06:48;21.40;79.30
29855;DHT22;16733;48.738;9.106;2022-08-19T11:09:19;21.40;79.00
29855;DHT22;16733;48.738;9.106;2022-08-19T11:11:45;21.50;79.10
29855;DHT22;16733;48.738;9.106;2022-08-19T11:14:15;21.50;78.90
29855;DHT22;16733;48.738;9.106;2022-08-19T11:16:44;21.60;78.80
29855;DHT22;16733;48.738;9.106;2022-08-19T11:19:11;21.70;78.80
29855;DHT22;16733;48.738;9.106;2022-08-19T11:21:40;21.80;78.60
29855;DHT22;16733;48.738;9.106;2022-08-19T11:27:28;21.90;77.70
29855;DHT22;16733;48.738;9.106;2022-08-19T11:40:00;22.20;76.80
29855;DHT22;16733;48.738;9.106;2022-08-19T11:42:26;22.30;76.90
29855;DHT22;16733;48.738;9.106;2022-08-19T11:51:54;22.40;75.90
29855;DHT22;16733;48.738;9.106;2022-08-19T11:54:20;22.40;75.80
29855;DHT22;16733;48.738;9.106;2022-08-19T11:56:46;22.40;75.50
29855;DHT22;16733;48.738;9.106;2022-08-19T12:02:35;22.40;74.90
29855;DHT22;16733;48.738;9.106;2022-08-19T12:05:00;22.40;75.00
29855;DHT22;16733;48.738;9.106;2022-08-19T12:07:28;22.50;75.00
29855;DHT22;16733;48.738;9.106;2022-08-19T12:09:56;22.60;74.70
29855;DHT22;16733;48.738;9.106;2022-08-19T12:12:22;22.70;74.40
29855;DHT22;16733;48.738;9.106;2022-08-19T12:14:49;22.80;74.10
29855;DHT22;16733;48.738;9.106;2022-08-19T12:17:22;22.70;73.60
29855;DHT22;16733;48.738;9.106;2022-08-19T12:19:48;22.80;73.60
29855;DHT22;16733;48.738;9.106;2022-08-19T12:22:13;22.80;73.50
29855;DHT22;16733;48.738;9.106;2022-08-19T12:24:39;22.80;73.30
29855;DHT22;16733;48.738;9.106;2022-08-19T12:27:05;22.70;73.00
29855;DHT22;16733;48.738;9.106;2022-08-19T12:29:30;22.70;72.70
29855;DHT22;16733;48.738;9.106;2022-08-19T12:31:57;22.70;72.60
29855;DHT22;16733;48.738;9.106;2022-08-19T12:37:49;22.80;72.50
29855;DHT22;16733;48.738;9.106;2022-08-19T12:40:16;22.90;72.60
29855;DHT22;16733;48.738;9.106;2022-08-19T12:46:05;22.90;71.70
29855;DHT22;16733;48.738;9.106;2022-08-19T12:48:32;22.90;71.90
29855;DHT22;16733;48.738;9.106;2022-08-19T12:50:58;22.90;71.70
29855;DHT22;16733;48.738;9.106;2022-08-19T12:53:23;22.90;71.50
29855;DHT22;16733;48.738;9.106;2022-08-19T12:55:57;22.90;71.30
29855;DHT22;16733;48.738;9.106;2022-08-19T12:58:23;22.90;71.00
29855;DHT22;16733;48.738;9.106;2022-08-19T13:00:49;22.90;70.90
29855;DHT22;16733;48.738;9.106;2022-08-19T13:03:15;22.90;70.80
29855;DHT22;16733;48.738;9.106;2022-08-19T13:09:03;22.80;70.40
29855;DHT22;16733;48.738;9.106;2022-08-19T13:11:29;22.90;70.70
29855;DHT22;16733;48.738;9.106;2022-08-19T13:17:20;22.90;70.60
29855;DHT22;16733;48.738;9.106;2022-08-19T13:19:45;22.90;70.80
29855;DHT22;16733;48.738;9.106;2022-08-19T13:22:11;23.00;71.00
29855;DHT22;16733;48.738;9.106;2022-08-19T13:27:59;22.90;71.80
29855;DHT22;16733;48.738;9.106;2022-08-19T13:30:25;22.80;72.40
29855;DHT22;16733;48.738;9.106;2022-08-19T13:36:33;22.70;73.20
29855;DHT22;16733;48.738;9.106;2022-08-19T13:38:59;22.60;73.60
29855;DHT22;16733;48.738;9.106;2022-08-19T13:44:47;22.40;74.50
29855;DHT22;16733;48.738;9.106;2022-08-19T13:47:13;22.30;75.00
29855;DHT22;16733;48.738;9.106;2022-08-19T13:49:39;22.30;75.40
29855;DHT22;16733;48.738;9.106;2022-08-19T13:52:05;22.30;76.40
29855;DHT22;16733;48.738;9.106;2022-08-19T13:54:31;22.40;75.80
29855;DHT22;16733;48.738;9.106;2022-08-19T13:56:56;22.30;75.80
29855;DHT22;16733;48.738;9.106;2022-08-19T13:59:22;22.20;76.10
29855;DHT22;16733;48.738;9.106;2022-08-19T14:01:48;22.10;76.30
29855;DHT22;16733;48.738;9.106;2022-08-19T14:04:14;22.10;76.60
29855;DHT22;16733;48.738;9.106;2022-08-19T14:06:40;22.00;76.70
29855;DHT22;16733;48.738;9.106;2022-08-19T14:09:06;22.00;77.00
29855;DHT22;16733;48.738;9.106;2022-08-19T14:11:32;21.90;77.20
29855;DHT22;16733;48.738;9.106;2022-08-19T14:13:58;21.90;77.40
29855;DHT22;16733;48.738;9.106;2022-08-19T14:16:24;22.00;77.60
29855;DHT22;16733;48.738;9.106;2022-08-19T14:18:49;22.00;77.60
29855;DHT22;16733;48.738;9.106;2022-08-19T14:21:18;22.00;77.70
29855;DHT22;16733;48.738;9.106;2022-08-19T14:23:46;22.00;77.70
29855;DHT22;16733;48.738;9.106;2022-08-19T14:26:14;22.00;77.80
29855;DHT22;16733;48.738;9.106;2022-08-19T14:28:41;22.00;78.00
29855;DHT22;16733;48.738;9.106;2022-08-19T14:34:29;22.20;78.10
29855;DHT22;16733;48.738;9.106;2022-08-19T14:36:57;22.20;77.70
29855;DHT22;16733;48.738;9.106;2022-08-19T14:42:45;22.20;78.00
29855;DHT22;16733;48.738;9.106;2022-08-19T14:45:11;22.30;78.10
29855;DHT22;16733;48.738;9.106;2022-08-19T14:47:37;22.30;78.20
29855;DHT22;16733;48.738;9.106;2022-08-19T14:50:05;22.40;78.20
29855;DHT22;16733;48.738;9.106;2022-08-19T14:52:32;22.60;78.00
29855;DHT22;16733;48.738;9.106;2022-08-19T14:54:57;22.80;77.60
29855;DHT22;16733;48.738;9.106;2022-08-19T14:57:23;23.00;77.00
29855;DHT22;16733;48.738;9.106;2022-08-19T14:59:49;23.00;76.50
29855;DHT22;16733;48.738;9.106;2022-08-19T15:02:14;22.80;76.50
29855;DHT22;16733;48.738;9.106;2022-08-19T15:04:40;22.70;76.80
29855;DHT22;16733;48.738;9.106;2022-08-19T15:07:06;22.50;77.00
29855;DHT22;16733;48.738;9.106;2022-08-19T15:09:32;22.50;77.20
29855;DHT22;16733;48.738;9.106;2022-08-19T15:11:58;22.40;77.20
29855;DHT22;16733;48.738;9.106;2022-08-19T15:14:26;22.40;77.40
29855;DHT22;16733;48.738;9.106;2022-08-19T15:20:17;22.30;77.40
29855;DHT22;16733;48.738;9.106;2022-08-19T15:22:46;22.50;77.30
29855;DHT22;16733;48.738;9.106;2022-08-19T15:28:35;22.90;76.60
29855;DHT22;16733;48.738;9.106;2022-08-19T15:31:01;23.00;76.50
29855;DHT22;16733;48.738;9.106;2022-08-19T15:33:27;23.10;76.10
29855;DHT22;16733;48.738;9.106;2022-08-19T15:35:53;23.30;75.90
29855;DHT22;16733;48.738;9.106;2022-08-19T15:38:19;23.40;75.70
29855;DHT22;16733;48.738;9.106;2022-08-19T15:47:31;23.90;74.90
29855;DHT22;16733;48.738;9.106;2022-08-19T15:49:57;24.10;74.90
29855;DHT22;16733;48.738;9.106;2022-08-19T15:52:24;24.30;74.60
29855;DHT22;16733;48.738;9.106;2022-08-19T15:54:49;24.40;74.20
29855;DHT22;16733;48.738;9.106;2022-08-19T15:57:15;24.50;74.10
29855;DHT22;16733;48.738;9.106;2022-08-19T15:59:47;24.50;74.20
29855;DHT22;16733;48.738;9.106;2022-08-19T16:02:32;24.50;74.60
29855;DHT22;16733;48.738;9.106;2022-08-19T16:05:19;24.40;74.50
29855;DHT22;16733;48.738;9.106;2022-08-19T16:08:04;24.30;74.40
29855;DHT22;16733;48.738;9.106;2022-08-19T16:10:30;24.30;73.80
29855;DHT22;16733;48.738;9.106;2022-08-19T16:13:00;24.40;72.50
29855;DHT22;16733;48.738;9.106;2022-08-19T16:15:29;24.50;71.00
29855;DHT22;16733;48.738;9.106;2022-08-19T16:17:58;24.50;69.50
29855;DHT22;16733;48.738;9.106;2022-08-19T16:20:28;24.70;68.30
29855;DHT22;16733;48.738;9.106;2022-08-19T16:22:55;24.70;67.30
29855;DHT22;16733;48.738;9.106;2022-08-19T16:25:22;24.70;66.20
29855;DHT22;16733;48.738;9.106;2022-08-19T16:27:52;24.70;65.40
29855;DHT22;16733;48.738;9.106;2022-08-19T16:33:41;24.80;63.10
29855;DHT22;16733;48.738;9.106;2022-08-19T16:39:29;24.80;62.20
29855;DHT22;16733;48.738;9.106;2022-08-19T16:41:55;24.70;63.30
29855;DHT22;16733;48.738;9.106;2022-08-19T16:44:20;24.60;64.10
29855;DHT22;16733;48.738;9.106;2022-08-19T16:46:46;24.40;65.00
29855;DHT22;16733;48.738;9.106;2022-08-19T16:49:13;24.30;65.90
29855;DHT22;16733;48.738;9.106;2022-08-19T16:51:40;24.10;66.60
29855;DHT22;16733;48.738;9.106;2022-08-19T16:54:10;23.90;67.10
29855;DHT22;16733;48.738;9.106;2022-08-19T16:56:36;23.80;67.70
29855;DHT22;16733;48.738;9.106;2022-08-19T17:02:24;23.50;68.50
29855;DHT22;16733;48.738;9.106;2022-08-19T17:04:50;23.30;69.00
29855;DHT22;16733;48.738;9.106;2022-08-19T17:10:38;23.00;70.20
29855;DHT22;16733;48.738;9.106;2022-08-19T17:13:05;22.80;70.40
29855;DHT22;16733;48.738;9.106;2022-08-19T17:15:32;22.70;70.90
29855;DHT22;16733;48.738;9.106;2022-08-19T17:18:02;22.50;71.20
29855;DHT22;16733;48.738;9.106;2022-08-19T17:20:30;22.40;71.90
29855;DHT22;16733;48.738;9.106;2022-08-19T17:29:40;22.10;73.00
29855;DHT22;16733;48.738;9.106;2022-08-19T17:32:05;22.00;73.10
29855;DHT22;16733;48.738;9.106;2022-08-19T17:37:54;21.90;73.90
29855;DHT22;16733;48.738;9.106;2022-08-19T17:40:20;21.80;73.80
29855;DHT22;16733;48.738;9.106;2022-08-19T17:46:07;21.60;74.80
29855;DHT22;16733;48.738;9.106;2022-08-19T17:48:35;21.50;74.80
29855;DHT22;16733;48.738;9.106;2022-08-19T17:54:25;21.50;75.70
29855;DHT22;16733;48.738;9.106;2022-08-19T17:56:50;21.50;75.60
29855;DHT22;16733;48.738;9.106;2022-08-19T17:59:17;21.40;76.00
29855;DHT22;16733;48.738;9.106;2022-08-19T18:01:44;21.30;76.30
29855;DHT22;16733;48.738;9.106;2022-08-19T18:04:10;21.30;76.60
29855;DHT22;16733;48.738;9.106;2022-08-19T18:06:37;21.30;77.00
29855;DHT22;16733;48.738;9.106;2022-08-19T18:09:06;21.30;77.30
29855;DHT22;16733;48.738;9.106;2022-08-19T18:11:33;21.30;77.50
29855;DHT22;16733;48.738;9.106;2022-08-19T18:17:21;21.30;78.50
29855;DHT22;16733;48.738;9.106;2022-08-19T18:19:48;21.20;77.90
29855;DHT22;16733;48.738;9.106;2022-08-19T18:25:43;21.20;78.60
29855;DHT22;16733;48.738;9.106;2022-08-19T18:28:08;21.10;78.60
29855;DHT22;16733;48.738;9.106;2022-08-19T18:30:34;21.10;79.10
29855;DHT22;16733;48.738;9.106;2022-08-19T18:36:22;21.00;79.90
29855;DHT22;16733;48.738;9.106;2022-08-19T18:38:48;21.00;79.70
29855;DHT22;16733;48.738;9.106;2022-08-19T18:41:32;21.00;80.00
29855;DHT22;16733;48.738;9.106;2022-08-19T18:44:16;21.00;80.10
29855;DHT22;16733;48.738;9.106;2022-08-19T18:47:00;21.00;80.40
29855;DHT22;16733;48.738;9.106;2022-08-19T18:49:44;20.90;80.60
29855;DHT22;16733;48.738;9.106;2022-08-19T18:52:10;20.90;80.90
29855;DHT22;16733;48.738;9.106;2022-08-19T18:54:36;20.80;81.30
29855;DHT22;16733;48.738;9.106;2022-08-19T18:57:01;20.80;81.60
29855;DHT22;16733;48.738;9.106;2022-08-19T18:59:30;20.80;81.80
29855;DHT22;16733;48.738;9.106;2022-08-19T19:01:58;20.80;82.00
29855;DHT22;16733;48.738;9.106;2022-08-19T19:04:30;20.70;82.00
29855;DHT22;16733;48.738;9.106;2022-08-19T19:13:57;20.70;82.60
29855;DHT22;16733;48.738;9.106;2022-08-19T19:16:24;20.60;82.40
29855;DHT22;16733;48.738;9.106;2022-08-19T19:22:16;20.60;83.00
29855;DHT22;16733;48.738;9.106;2022-08-19T19:24:41;20.60;82.80
29855;DHT22;16733;48.738;9.106;2022-08-19T19:30:32;20.70;83.00
29855;DHT22;16733;48.738;9.106;2022-08-19T19:32:57;20.70;82.70
29855;DHT22;16733;48.738;9.106;2022-08-19T19:35:26;20.80;82.30
29855;DHT22;16733;48.738;9.106;2022-08-19T19:37:54;20.80;81.80
29855;DHT22;16733;48.738;9.106;2022-08-19T19:40:20;20.80;81.10
29855;DHT22;16733;48.738;9.106;2022-08-19T19:42:47;20.90;81.40
29855;DHT22;16733;48.738;9.106;2022-08-19T19:45:16;20.90;79.90
29855;DHT22;16733;48.738;9.106;2022-08-19T19:47:42;21.00;79.10
29855;DHT22;16733;48.738;9.106;2022-08-19T19:50:09;21.00;78.40
29855;DHT22;16733;48.738;9.106;2022-08-19T19:52:36;21.10;77.80
29855;DHT22;16733;48.738;9.106;2022-08-19T19:55:02;21.20;77.20
29855;DHT22;16733;48.738;9.106;2022-08-19T19:57:27;21.20;76.50
29855;DHT22;16733;48.738;9.106;2022-08-19T19:59:54;21.30;76.00
29855;DHT22;16733;48.738;9.106;2022-08-19T20:02:20;21.40;75.40
29855;DHT22;16733;48.738;9.106;2022-08-19T20:04:46;21.40;74.80
29855;DHT22;16733;48.738;9.106;2022-08-19T20:07:12;21.40;74.30
29855;DHT22;16733;48.738;9.106;2022-08-19T20:09:38;21.50;73.90
29855;DHT22;16733;48.738;9.106;2022-08-19T20:12:05;21.50;73.50
29855;DHT22;16733;48.738;9.106;2022-08-19T20:14:32;21.60;73.10
29855;DHT22;16733;48.738;9.106;2022-08-19T20:20:21;21.70;72.20
29855;DHT22;16733;48.738;9.106;2022-08-19T20:22:47;21.70;72.30
29855;DHT22;16733;48.738;9.106;2022-08-19T20:28:36;21.70;71.20
29855;DHT22;16733;48.738;9.106;2022-08-19T20:31:01;21.70;71.40
29855;DHT22;16733;48.738;9.106;2022-08-19T20:33:27;21.70;71.00
29855;DHT22;16733;48.738;9.106;2022-08-19T20:39:16;21.80;70.10
29855;DHT22;16733;48.738;9.106;2022-08-19T20:41:42;21.80;70.30
29855;DHT22;16733;48.738;9.106;2022-08-19T20:47:31;21.80;69.30
29855;DHT22;16733;48.738;9.106;2022-08-19T20:49:57;21.80;69.60
29855;DHT22;16733;48.738;9.106;2022-08-19T20:55:46;21.80;68.90
29855;DHT22;16733;48.738;9.106;2022-08-19T20:58:15;21.80;69.10
29855;DHT22;16733;48.738;9.106;2022-08-19T21:04:03;21.80;68.60
29855;DHT22;16733;48.738;9.106;2022-08-19T21:06:29;21.70;68.80
29855;DHT22;16733;48.738;9.106;2022-08-19T21:08:55;21.70;68.60
29855;DHT22;16733;48.738;9.106;2022-08-19T21:14:43;21.70;68.20
29855;DHT22;16733;48.738;9.106;2022-08-19T21:17:09;21.70;68.50
29855;DHT22;16733;48.738;9.106;2022-08-19T21:22:56;21.70;68.10
29855;DHT22;16733;48.738;9.106;2022-08-19T21:25:22;21.70;68.30
29855;DHT22;16733;48.738;9.106;2022-08-19T21:27:48;21.70;68.20
29855;DHT22;16733;48.738;9.106;2022-08-19T21:30:13;21.70;68.20
29855;DHT22;16733;48.738;9.106;2022-08-19T21:32:39;21.70;68.10
29855;DHT22;16733;48.738;9.106;2022-08-19T21:35:05;21.70;68.20